Time;durP1;ratioP1;P1;durP2;ratioP2;P2;SDS_P1;SDS_P2;PMS_P1;PMS_P2;Temp;Humidity;BMP_temperature;BMP_pressure;BME280_temperature;BME280_humidity;BME280_pressure;Samples;Min_cycle;Max_cycle;Signal;HPM_P1;HPM_P2
2021/06/24 00:02:20;;;;;;;11.57;6.65;;;13.90;99.90;;;;;;5033902;28;20045;-73
2021/06/24 00:04:47;;;;;;;9.88;6.70;;;14.00;99.90;;;;;;5030549;28;20081;-74
2021/06/24 00:07:13;;;;;;;13.43;7.20;;;14.10;99.90;;;;;;5024317;28;20050;-73
2021/06/24 00:09:40;;;;;;;8.70;7.28;;;14.00;99.90;;;;;;5016473;28;20041;-73
2021/06/24 00:12:09;;;;;;;12.45;7.63;;;14.10;99.90;;;;;;5031991;28;20069;-73
2021/06/24 00:14:36;;;;;;;11.70;7.22;;;14.00;99.90;;;;;;5024627;28;20077;-74
2021/06/24 00:17:03;;;;;;;11.85;7.35;;;14.00;99.90;;;;;;5015624;28;20081;-74
2021/06/24 00:19:29;;;;;;;13.88;8.05;;;14.00;99.90;;;;;;5016007;28;20552;-74
2021/06/24 00:21:56;;;;;;;8.95;7.35;;;14.00;99.90;;;;;;5024184;28;20068;-74
2021/06/24 00:24:23;;;;;;;11.35;7.32;;;13.90;99.90;;;;;;5023076;28;20501;-75
2021/06/24 00:26:49;;;;;;;12.63;7.40;;;13.90;99.90;;;;;;5033496;28;20076;-74
2021/06/24 00:29:24;;;;;;;8.70;7.25;;;13.90;99.90;;;;;;5034492;28;20817;-74
2021/06/24 00:31:50;;;;;;;10.95;7.15;;;13.90;99.90;;;;;;5015775;28;20078;-73
2021/06/24 00:34:17;;;;;;;9.00;6.45;;;14.00;99.90;;;;;;5015900;28;20096;-73
2021/06/24 00:36:44;;;;;;;8.60;7.35;;;14.10;99.90;;;;;;5022750;28;20042;-73
2021/06/24 00:39:10;;;;;;;6.72;5.93;;;14.30;99.90;;;;;;5035133;28;20095;-74
2021/06/24 00:41:37;;;;;;;8.82;6.60;;;14.30;99.90;;;;;;5028536;28;20085;-73
2021/06/24 00:44:04;;;;;;;8.55;6.53;;;14.20;99.90;;;;;;5015860;28;20042;-74
2021/06/24 00:46:32;;;;;;;10.15;6.47;;;14.10;99.90;;;;;;5015379;28;20065;-73
2021/06/24 00:49:03;;;;;;;10.55;6.13;;;14.00;99.90;;;;;;5013985;28;20069;-72
2021/06/24 00:51:29;;;;;;;7.57;5.97;;;13.90;99.90;;;;;;5015251;28;20056;-73
2021/06/24 00:53:56;;;;;;;7.97;7.18;;;13.90;99.90;;;;;;5025064;28;20100;-73
2021/06/24 00:56:38;;;;;;;8.02;6.47;;;13.80;99.90;;;;;;5034689;28;20069;-73
2021/06/24 00:59:05;;;;;;;9.18;8.10;;;13.80;99.90;;;;;;5032489;28;20049;-73
2021/06/24 01:01:34;;;;;;;7.88;5.93;;;13.80;99.90;;;;;;5015270;28;20104;-74
2021/06/24 01:04:21;;;;;;;6.90;5.95;;;13.90;99.90;;;;;;5016575;28;20572;-74
2021/06/24 01:06:48;;;;;;;9.05;5.75;;;14.00;99.90;;;;;;5034738;28;20420;-75
2021/06/24 01:09:15;;;;;;;9.13;6.05;;;14.10;99.90;;;;;;5022204;28;20050;-75
2021/06/24 01:11:42;;;;;;;13.18;6.82;;;14.10;99.90;;;;;;5028283;28;20080;-74
2021/06/24 01:14:10;;;;;;;9.90;6.45;;;13.90;99.90;;;;;;5033863;28;20571;-73
2021/06/24 01:16:44;;;;;;;9.38;6.28;;;13.80;99.90;;;;;;5032713;28;20073;-73
2021/06/24 01:19:12;;;;;;;11.05;7.72;;;13.60;99.90;;;;;;5031750;28;20049;-74
2021/06/24 01:21:39;;;;;;;11.07;7.05;;;13.50;99.90;;;;;;5034388;28;20071;-74
2021/06/24 01:24:07;;;;;;;10.38;7.63;;;13.50;99.90;;;;;;5030412;28;20643;-74
2021/06/24 01:26:34;;;;;;;10.27;8.10;;;13.50;99.90;;;;;;5014325;28;20459;-74
2021/06/24 01:29:01;;;;;;;9.60;6.93;;;13.50;99.90;;;;;;5014593;28;20643;-73
2021/06/24 01:31:27;;;;;;;9.68;7.40;;;13.70;99.90;;;;;;5018887;28;20100;-74
2021/06/24 01:33:54;;;;;;;9.80;6.93;;;13.70;99.90;;;;;;5032927;28;20050;-73
2021/06/24 01:36:20;;;;;;;8.65;6.55;;;13.80;99.90;;;;;;5033942;28;20123;-73
2021/06/24 01:38:47;;;;;;;8.55;7.18;;;13.90;99.90;;;;;;5033983;28;20481;-73
2021/06/24 01:41:17;;;;;;;9.63;6.95;;;14.10;99.90;;;;;;5033402;28;20045;-74
2021/06/24 01:43:45;;;;;;;6.80;5.97;;;14.10;99.90;;;;;;5033918;28;20555;-74
2021/06/24 01:46:12;;;;;;;11.10;6.57;;;14.00;99.90;;;;;;5033176;28;20049;-74
2021/06/24 01:48:39;;;;;;;8.38;6.03;;;14.10;99.90;;;;;;5033712;28;20484;-73
2021/06/24 01:51:06;;;;;;;6.50;5.85;;;14.20;99.90;;;;;;5035231;28;20112;-73
2021/06/24 01:53:33;;;;;;;8.88;6.93;;;14.20;99.90;;;;;;5033994;28;20069;-73
2021/06/24 01:56:00;;;;;;;9.75;6.15;;;14.30;99.90;;;;;;5016188;28;20410;-73
2021/06/24 01:58:29;;;;;;;6.90;6.00;;;14.20;99.90;;;;;;5014595;28;20049;-73
2021/06/24 02:00:58;;;;;;;8.10;6.65;;;14.10;99.90;;;;;;5020173;28;20136;-73
2021/06/24 02:03:24;;;;;;;8.00;5.90;;;14.10;99.90;;;;;;5033139;28;20049;-73
2021/06/24 02:05:53;;;;;;;7.45;6.35;;;14.10;99.90;;;;;;5013576;28;20077;-74
2021/06/24 02:08:22;;;;;;;8.63;6.47;;;14.10;99.90;;;;;;5013644;28;20078;-73
2021/06/24 02:10:50;;;;;;;7.05;6.35;;;14.10;99.90;;;;;;5022505;28;20081;-72
2021/06/24 02:13:17;;;;;;;8.68;6.03;;;14.10;99.90;;;;;;5020011;28;20095;-73
2021/06/24 02:15:45;;;;;;;7.53;5.97;;;14.10;99.90;;;;;;5032794;28;20099;-72
2021/06/24 02:18:12;;;;;;;9.23;6.45;;;14.10;99.90;;;;;;5033945;28;20073;-73
2021/06/24 02:20:39;;;;;;;7.53;6.38;;;14.10;99.90;;;;;;5032884;28;20050;-74
2021/06/24 02:23:06;;;;;;;5.80;5.28;;;14.00;99.90;;;;;;5013501;28;20053;-73
2021/06/24 02:25:33;;;;;;;9.88;6.38;;;14.00;99.90;;;;;;5026619;28;20080;-74
2021/06/24 02:28:00;;;;;;;10.30;5.95;;;14.00;99.90;;;;;;5032915;28;20049;-74
2021/06/24 02:30:27;;;;;;;8.45;6.32;;;14.00;99.90;;;;;;5033087;28;20092;-74
2021/06/24 02:32:55;;;;;;;9.32;7.35;;;14.10;99.90;;;;;;5017253;28;20042;-73
2021/06/24 02:35:24;;;;;;;9.25;7.45;;;14.00;99.90;;;;;;5013284;28;20100;-73
2021/06/24 02:37:52;;;;;;;14.07;6.32;;;14.00;99.90;;;;;;5013351;28;20516;-74
2021/06/24 02:40:19;;;;;;;9.65;7.20;;;14.00;99.90;;;;;;5020935;28;20045;-73
2021/06/24 02:42:46;;;;;;;11.65;7.95;;;13.90;99.90;;;;;;5033361;28;20046;-74
2021/06/24 02:45:14;;;;;;;9.70;7.25;;;13.90;99.90;;;;;;5025344;28;20060;-75
2021/06/24 02:47:41;;;;;;;10.02;7.15;;;13.90;99.90;;;;;;5033043;28;20456;-74
2021/06/24 02:50:11;;;;;;;9.10;6.28;;;14.00;99.90;;;;;;5032600;28;20045;-74
2021/06/24 02:52:38;;;;;;;9.93;6.45;;;14.00;99.90;;;;;;5032790;28;20563;-73
2021/06/24 02:55:06;;;;;;;8.35;6.13;;;14.00;99.90;;;;;;5027171;28;20376;-73
2021/06/24 02:57:33;;;;;;;8.00;6.72;;;14.00;99.90;;;;;;5013619;28;20084;-73
2021/06/24 02:59:59;;;;;;;9.23;6.13;;;14.00;99.90;;;;;;5013116;28;20054;-73
2021/06/24 03:02:26;;;;;;;8.65;6.22;;;14.00;99.90;;;;;;5013057;28;20073;-73
2021/06/24 03:04:52;;;;;;;7.55;5.95;;;14.10;99.90;;;;;;5012731;28;20484;-73
2021/06/24 03:07:20;;;;;;;6.80;5.57;;;14.10;99.90;;;;;;5012364;28;20625;-73
2021/06/24 03:09:47;;;;;;;11.40;6.85;;;14.10;99.90;;;;;;5017867;28;20041;-74
2021/06/24 03:12:13;;;;;;;8.63;6.60;;;14.20;99.90;;;;;;5022822;28;20050;-74
2021/06/24 03:14:40;;;;;;;10.10;6.35;;;14.20;99.90;;;;;;5025691;28;20080;-72
2021/06/24 03:17:06;;;;;;;6.60;5.78;;;14.30;99.90;;;;;;5013228;28;20077;-73
2021/06/24 03:19:33;;;;;;;9.02;5.97;;;14.30;99.90;;;;;;5013114;28;20486;-74
2021/06/24 03:22:00;;;;;;;7.93;7.05;;;14.40;99.90;;;;;;5013369;28;20112;-74
2021/06/24 03:24:28;;;;;;;10.27;6.25;;;14.40;99.90;;;;;;5013845;28;20054;-73
2021/06/24 03:26:54;;;;;;;9.80;6.00;;;14.60;99.90;;;;;;5013102;28;20049;-73
2021/06/24 03:29:21;;;;;;;10.45;6.28;;;14.60;99.90;;;;;;5013365;28;20521;-74
2021/06/24 03:31:47;;;;;;;6.40;5.13;;;14.60;99.90;;;;;;5012908;28;20509;-73
2021/06/24 03:34:14;;;;;;;10.00;6.00;;;14.70;99.90;;;;;;5016549;28;20049;-72
2021/06/24 03:36:40;;;;;;;8.93;6.00;;;14.60;99.90;;;;;;5032245;28;20041;-74
2021/06/24 03:39:07;;;;;;;10.05;6.53;;;14.70;99.90;;;;;;5018817;28;20057;-75
2021/06/24 03:41:35;;;;;;;8.80;6.28;;;14.70;99.90;;;;;;5017707;28;20073;-74
2021/06/24 03:44:02;;;;;;;8.27;5.80;;;14.80;99.90;;;;;;5019214;28;20069;-72
2021/06/24 03:46:29;;;;;;;9.57;5.97;;;14.80;99.90;;;;;;5032613;28;20103;-76
2021/06/24 03:48:56;;;;;;;8.43;6.55;;;14.90;99.90;;;;;;5031980;28;20041;-70
2021/06/24 03:51:23;;;;;;;12.18;6.47;;;14.90;99.90;;;;;;5028321;28;20104;-71
2021/06/24 03:53:49;;;;;;;10.60;6.72;;;14.90;99.90;;;;;;5018848;28;20100;-69
2021/06/24 03:56:16;;;;;;;7.68;5.47;;;14.80;99.90;;;;;;5030995;28;20049;-71
2021/06/24 03:58:44;;;;;;;8.77;6.18;;;14.90;99.90;;;;;;5032418;28;20103;-72
2021/06/24 04:01:10;;;;;;;8.10;6.00;;;15.00;99.90;;;;;;5031692;28;20096;-69
2021/06/24 04:03:37;;;;;;;9.32;5.53;;;15.00;99.90;;;;;;5031872;28;20501;-72
2021/06/24 04:06:04;;;;;;;11.73;6.13;;;15.00;99.90;;;;;;5014215;28;20050;-73
2021/06/24 04:08:30;;;;;;;8.57;5.82;;;15.00;99.90;;;;;;5031817;28;20049;-68
2021/06/24 04:10:57;;;;;;;6.30;5.03;;;15.00;99.90;;;;;;5031799;28;20045;-75
2021/06/24 04:13:24;;;;;;;9.90;4.80;;;15.10;99.90;;;;;;5031908;28;20175;-74
2021/06/24 04:15:53;;;;;;;10.27;5.63;;;15.10;99.90;;;;;;5031163;28;20575;-73
2021/06/24 04:18:20;;;;;;;8.35;6.07;;;15.10;99.90;;;;;;5031085;28;20045;-74
2021/06/24 04:20:46;;;;;;;7.85;5.68;;;15.20;99.90;;;;;;5031389;28;20045;-74
2021/06/24 04:23:13;;;;;;;10.88;6.78;;;15.20;99.90;;;;;;5032090;28;20405;-73
2021/06/24 04:25:40;;;;;;;6.93;5.50;;;15.20;99.90;;;;;;5035550;28;20136;-74
2021/06/24 04:28:06;;;;;;;8.93;5.55;;;15.20;99.90;;;;;;5035196;28;20057;-75
2021/06/24 04:30:33;;;;;;;12.15;5.88;;;15.20;99.90;;;;;;5027255;28;20381;-75
2021/06/24 04:33:01;;;;;;;8.48;5.55;;;15.20;99.90;;;;;;5017106;28;20046;-72
2021/06/24 04:35:28;;;;;;;11.10;7.28;;;15.20;99.90;;;;;;5031504;28;20081;-72
2021/06/24 04:37:55;;;;;;;12.40;5.50;;;15.20;99.90;;;;;;5034844;28;20049;-72
2021/06/24 04:40:21;;;;;;;10.20;5.93;;;15.20;99.90;;;;;;5035004;28;20469;-73
2021/06/24 04:42:48;;;;;;;9.73;6.18;;;15.20;99.90;;;;;;5035377;28;20045;-71
2021/06/24 04:45:16;;;;;;;9.32;7.13;;;15.30;99.90;;;;;;5034861;28;20448;-70
2021/06/24 04:47:43;;;;;;;11.40;7.78;;;15.30;99.90;;;;;;5034453;28;20049;-70
2021/06/24 04:50:12;;;;;;;15.25;7.32;;;15.30;99.90;;;;;;5032889;28;20064;-71
2021/06/24 04:52:39;;;;;;;10.07;6.57;;;15.30;99.90;;;;;;5025768;28;20050;-71
2021/06/24 04:55:07;;;;;;;9.05;6.82;;;15.30;99.90;;;;;;5023178;28;20222;-71
2021/06/24 04:57:33;;;;;;;15.50;8.18;;;15.50;99.90;;;;;;5034327;28;20640;-71
2021/06/24 05:00:00;;;;;;;8.55;6.15;;;15.50;99.90;;;;;;5034248;28;20097;-71
2021/06/24 05:02:26;;;;;;;13.20;7.18;;;15.60;99.90;;;;;;5034793;28;20045;-69
2021/06/24 05:04:55;;;;;;;11.90;7.68;;;15.50;99.90;;;;;;5034915;28;20076;-74
2021/06/24 05:07:23;;;;;;;8.40;7.15;;;15.40;99.90;;;;;;5035414;28;20049;-70
2021/06/24 05:09:50;;;;;;;12.52;6.63;;;15.40;99.90;;;;;;5034116;28;20099;-73
2021/06/24 05:12:16;;;;;;;9.65;7.47;;;15.50;99.90;;;;;;5034314;28;20080;-73
2021/06/24 05:14:43;;;;;;;11.75;6.60;;;15.50;99.90;;;;;;5034526;28;20099;-71
2021/06/24 05:17:14;;;;;;;11.90;7.35;;;15.50;99.90;;;;;;5035560;28;20053;-70
2021/06/24 05:19:42;;;;;;;14.38;8.25;;;15.40;99.90;;;;;;5034424;28;20485;-69
2021/06/24 05:22:10;;;;;;;8.85;7.43;;;15.40;99.90;;;;;;5034047;28;20399;-70
2021/06/24 05:24:39;;;;;;;14.85;8.05;;;15.30;99.90;;;;;;5033588;28;20504;-71
2021/06/24 05:27:06;;;;;;;13.63;8.50;;;15.30;99.90;;;;;;5033473;28;20092;-73
2021/06/24 05:29:33;;;;;;;14.35;9.32;;;15.40;99.90;;;;;;5034391;28;20046;-72
2021/06/24 05:31:59;;;;;;;18.90;11.48;;;15.30;99.90;;;;;;5021240;28;20069;-72
2021/06/24 05:34:26;;;;;;;11.15;8.50;;;15.50;99.90;;;;;;5030950;28;20551;-76
2021/06/24 05:36:53;;;;;;;11.15;8.55;;;15.50;99.90;;;;;;5020366;28;20584;-68
2021/06/24 05:39:19;;;;;;;11.18;9.45;;;15.50;99.90;;;;;;5031536;28;20080;-72
2021/06/24 05:41:47;;;;;;;12.57;7.55;;;15.50;99.90;;;;;;5033700;28;20077;-69
2021/06/24 05:44:14;;;;;;;17.27;11.88;;;15.60;99.90;;;;;;5033601;28;20440;-68
2021/06/24 05:46:41;;;;;;;19.35;12.90;;;15.50;99.90;;;;;;5033967;28;20123;-69
2021/06/24 05:49:07;;;;;;;15.73;9.95;;;15.50;99.90;;;;;;5032369;28;20444;-69
2021/06/24 05:51:34;;;;;;;15.45;8.98;;;15.50;99.90;;;;;;5033300;28;20497;-70
2021/06/24 05:54:00;;;;;;;14.07;7.85;;;15.50;99.90;;;;;;5032920;28;20100;-70
2021/06/24 05:56:27;;;;;;;15.55;11.02;;;15.60;99.90;;;;;;5031538;28;20077;-71
2021/06/24 05:58:55;;;;;;;15.27;9.30;;;15.70;99.90;;;;;;5033429;28;20432;-72
2021/06/24 06:01:22;;;;;;;15.35;7.72;;;15.70;99.90;;;;;;5033397;28;20049;-69
2021/06/24 06:03:49;;;;;;;20.20;13.02;;;15.60;99.90;;;;;;5031599;28;20041;-69
2021/06/24 06:06:16;;;;;;;12.00;8.43;;;15.70;99.90;;;;;;5033165;28;20107;-70
2021/06/24 06:08:43;;;;;;;19.65;9.63;;;15.70;99.90;;;;;;5033220;28;20041;-70
2021/06/24 06:11:09;;;;;;;11.63;8.35;;;15.80;99.90;;;;;;5033230;28;20099;-71
2021/06/24 06:13:36;;;;;;;15.85;10.15;;;15.90;99.90;;;;;;5033919;28;20094;-71
2021/06/24 06:16:04;;;;;;;11.50;8.23;;;16.00;99.90;;;;;;5033159;28;20085;-71
2021/06/24 06:18:31;;;;;;;9.40;7.70;;;16.10;99.90;;;;;;5032629;28;20072;-72
2021/06/24 06:20:59;;;;;;;26.27;16.17;;;16.10;99.90;;;;;;5033251;28;20073;-72
2021/06/24 06:23:27;;;;;;;16.33;10.48;;;16.20;99.90;;;;;;5032877;28;20077;-67
2021/06/24 06:25:54;;;;;;;15.32;10.98;;;16.20;99.90;;;;;;5032574;28;20516;-68
2021/06/24 06:28:23;;;;;;;23.35;14.35;;;16.30;99.90;;;;;;5031049;28;20088;-69
2021/06/24 06:30:51;;;;;;;26.70;16.25;;;16.60;99.90;;;;;;5032255;28;20154;-69
2021/06/24 06:33:21;;;;;;;25.67;16.50;;;16.90;99.90;;;;;;5028100;28;20076;-72
2021/06/24 06:35:49;;;;;;;20.08;12.88;;;17.10;99.90;;;;;;5013025;28;20081;-72
2021/06/24 06:38:16;;;;;;;23.67;14.70;;;17.10;99.90;;;;;;5013153;28;20866;-72
2021/06/24 06:40:43;;;;;;;12.50;9.23;;;17.20;99.90;;;;;;5012923;28;20544;-69
2021/06/24 06:43:11;;;;;;;24.85;14.73;;;17.40;99.90;;;;;;5031498;28;20096;-70
2021/06/24 06:45:38;;;;;;;11.30;8.38;;;17.50;99.90;;;;;;5016566;28;20137;-68
2021/06/24 06:48:05;;;;;;;11.98;9.23;;;17.50;99.90;;;;;;5018623;28;20077;-71
2021/06/24 06:50:33;;;;;;;18.95;15.48;;;17.60;99.90;;;;;;5032103;28;20122;-71
2021/06/24 06:53:00;;;;;;;12.05;8.48;;;17.70;99.90;;;;;;5024807;28;20073;-70
2021/06/24 06:55:29;;;;;;;12.90;9.85;;;17.70;99.90;;;;;;5032259;28;20092;-70
2021/06/24 06:57:55;;;;;;;9.82;7.90;;;17.80;99.90;;;;;;5032018;28;20045;-70
2021/06/24 07:00:24;;;;;;;13.32;10.20;;;17.80;99.90;;;;;;5031549;28;20061;-70
2021/06/24 07:02:50;;;;;;;23.90;16.58;;;17.90;99.90;;;;;;5031954;28;20049;-72
2021/06/24 07:05:18;;;;;;;35.08;22.35;;;18.10;99.90;;;;;;5018189;28;20457;-72
2021/06/24 07:07:45;;;;;;;35.92;22.15;;;18.20;99.90;;;;;;5032142;28;20075;-71
2021/06/24 07:10:13;;;;;;;12.93;10.20;;;18.40;99.90;;;;;;5032378;28;20049;-72
2021/06/24 07:12:40;;;;;;;12.32;11.02;;;18.30;99.90;;;;;;5032232;28;20046;-71
2021/06/24 07:15:07;;;;;;;17.25;13.02;;;18.40;99.90;;;;;;5016462;28;20046;-70
2021/06/24 07:17:34;;;;;;;19.10;12.05;;;18.60;99.90;;;;;;5014314;28;20066;-70
2021/06/24 07:20:00;;;;;;;15.93;11.02;;;18.80;99.90;;;;;;5023774;28;20073;-69
2021/06/24 07:22:27;;;;;;;16.20;9.73;;;18.90;99.90;;;;;;5014389;28;20498;-68
2021/06/24 07:24:55;;;;;;;14.00;8.77;;;18.80;99.90;;;;;;5032241;28;20077;-68
2021/06/24 07:27:21;;;;;;;15.00;11.05;;;19.00;99.90;;;;;;5019628;28;20061;-72
2021/06/24 07:29:48;;;;;;;17.83;11.05;;;19.10;99.90;;;;;;5032060;28;20073;-73
2021/06/24 07:32:15;;;;;;;15.88;10.75;;;19.00;99.90;;;;;;5032293;28;20049;-71
2021/06/24 07:34:41;;;;;;;9.05;6.70;;;18.90;99.90;;;;;;5024040;28;20050;-69
2021/06/24 07:37:08;;;;;;;14.27;9.55;;;18.80;99.90;;;;;;5022776;28;20481;-69
2021/06/24 07:39:34;;;;;;;12.40;9.40;;;18.60;99.90;;;;;;5031881;28;20382;-68
2021/06/24 07:42:03;;;;;;;14.98;9.75;;;18.70;99.90;;;;;;5032013;28;20383;-71
2021/06/24 07:44:30;;;;;;;12.05;8.52;;;18.80;99.90;;;;;;5031616;28;20434;-70
2021/06/24 07:46:56;;;;;;;19.05;12.85;;;19.00;99.90;;;;;;5031815;28;20041;-69
2021/06/24 07:49:23;;;;;;;21.98;15.27;;;19.20;99.90;;;;;;5027755;28;20055;-70
2021/06/24 07:51:50;;;;;;;13.23;8.80;;;19.30;99.90;;;;;;5025588;28;20517;-72
2021/06/24 07:54:16;;;;;;;18.65;12.32;;;19.30;99.90;;;;;;5031865;28;20045;-71
2021/06/24 07:56:43;;;;;;;24.83;15.20;;;19.60;99.90;;;;;;5031409;28;20493;-71
2021/06/24 07:59:13;;;;;;;22.45;12.65;;;19.60;99.90;;;;;;5035496;28;20076;-68
2021/06/24 08:01:41;;;;;;;23.58;13.63;;;19.80;99.90;;;;;;5035632;28;20136;-70
2021/06/24 08:04:08;;;;;;;13.05;7.47;;;19.90;99.90;;;;;;5030667;28;20041;-69
2021/06/24 08:06:34;;;;;;;12.55;8.10;;;19.90;99.90;;;;;;5035019;28;20045;-70
2021/06/24 08:09:01;;;;;;;13.07;10.80;;;20.10;99.90;;;;;;5035517;28;20490;-70
2021/06/24 08:11:27;;;;;;;19.23;11.68;;;20.40;99.90;;;;;;5033985;28;20502;-73
2021/06/24 08:13:54;;;;;;;19.55;13.02;;;20.80;99.90;;;;;;5033784;28;20429;-69
2021/06/24 08:16:22;;;;;;;11.88;8.68;;;20.90;99.90;;;;;;4987222;28;20598;-69
2021/06/24 08:18:48;;;;;;;16.45;10.57;;;20.60;99.90;;;;;;5042197;28;20069;-72
2021/06/24 08:21:15;;;;;;;11.90;8.73;;;20.60;99.90;;;;;;5032063;28;20065;-71
2021/06/24 08:23:41;;;;;;;11.27;9.38;;;20.70;99.90;;;;;;5026657;28;20045;-69
2021/06/24 08:26:08;;;;;;;12.43;9.00;;;20.60;99.90;;;;;;5029835;28;20524;-73
2021/06/24 08:28:35;;;;;;;13.30;9.40;;;20.60;99.90;;;;;;5031047;28;20249;-69
2021/06/24 08:31:01;;;;;;;13.10;8.73;;;20.30;99.90;;;;;;5033551;28;20042;-69
2021/06/24 08:33:29;;;;;;;11.18;8.90;;;20.70;99.90;;;;;;5034992;28;20559;-69
2021/06/24 08:35:56;;;;;;;11.57;9.75;;;21.00;99.90;;;;;;5023059;28;20525;-69
2021/06/24 08:38:22;;;;;;;15.85;8.93;;;21.10;99.90;;;;;;5019981;28;20105;-68
2021/06/24 08:40:49;;;;;;;17.02;12.70;;;21.00;99.90;;;;;;5018051;28;20046;-68
2021/06/24 08:43:16;;;;;;;13.82;9.82;;;21.00;99.90;;;;;;5025786;28;20084;-71
2021/06/24 08:45:42;;;;;;;15.73;8.88;;;21.10;99.90;;;;;;5034675;28;20045;-67
2021/06/24 08:48:13;;;;;;;16.10;11.93;;;21.20;99.90;;;;;;5030394;28;20049;-70
2021/06/24 08:50:43;;;;;;;13.48;9.02;;;21.20;99.90;;;;;;5034578;28;20049;-68
2021/06/24 08:53:10;;;;;;;14.63;9.03;;;21.20;99.90;;;;;;5033720;28;20786;-69
2021/06/24 08:55:40;;;;;;;17.58;10.18;;;21.30;99.90;;;;;;5024025;28;20091;-67
2021/06/24 08:58:07;;;;;;;12.15;8.80;;;21.20;99.90;;;;;;5034693;28;20049;-71
2021/06/24 09:00:34;;;;;;;14.50;7.57;;;21.30;99.90;;;;;;5032690;28;20072;-70
2021/06/24 09:03:15;;;;;;;9.63;8.20;;;21.30;99.90;;;;;;5034565;28;20037;-70
2021/06/24 09:05:50;;;;;;;12.77;7.55;;;21.30;99.90;;;;;;5034336;28;20075;-72
2021/06/24 09:08:34;;;;;;;12.13;8.50;;;21.20;99.90;;;;;;5034285;28;20046;-71
2021/06/24 09:11:08;;;;;;;9.65;8.60;;;21.30;99.90;;;;;;5034547;28;20045;-71
2021/06/24 09:13:35;;;;;;;12.57;9.18;;;21.30;99.90;;;;;;5034196;28;20065;-73
2021/06/24 09:16:05;;;;;;;11.88;8.95;;;21.00;99.90;;;;;;5025221;28;20085;-74
2021/06/24 09:18:32;;;;;;;17.80;8.63;;;21.00;99.90;;;;;;5024017;28;20073;-70
2021/06/24 09:21:03;;;;;;;10.15;8.77;;;21.10;99.90;;;;;;5034130;28;20052;-70
2021/06/24 09:23:29;;;;;;;13.23;8.85;;;21.20;99.90;;;;;;5034240;28;20076;-70
2021/06/24 09:26:07;;;;;;;11.50;9.45;;;21.50;99.90;;;;;;5033950;28;20135;-73
2021/06/24 09:28:37;;;;;;;11.18;9.02;;;21.50;99.90;;;;;;5033699;28;20548;-71
2021/06/24 09:31:04;;;;;;;15.75;10.52;;;21.40;99.90;;;;;;5022935;28;20104;-68
2021/06/24 09:33:39;;;;;;;12.23;10.50;;;21.30;99.90;;;;;;5026403;28;20076;-73
2021/06/24 09:36:08;;;;;;;14.30;9.63;;;21.20;99.90;;;;;;5022047;28;20050;-73
2021/06/24 09:38:42;;;;;;;12.70;10.18;;;21.20;99.90;;;;;;5024373;28;20108;-71
2021/06/24 09:41:16;;;;;;;13.90;9.07;;;21.20;99.90;;;;;;5033663;28;20497;-75
2021/06/24 09:43:44;;;;;;;10.88;9.65;;;21.10;99.90;;;;;;5033844;28;20389;-70
2021/06/24 09:46:14;;;;;;;14.73;10.90;;;21.20;99.90;;;;;;5033483;28;20080;-70
2021/06/24 09:48:42;;;;;;;15.63;11.75;;;21.40;99.90;;;;;;5033409;28;20045;-71
2021/06/24 09:51:16;;;;;;;20.88;13.77;;;21.50;99.90;;;;;;5021059;28;20165;-70
2021/06/24 09:53:54;;;;;;;12.65;8.50;;;21.70;99.90;;;;;;5018994;28;20419;-71
2021/06/24 09:56:26;;;;;;;11.57;8.82;;;21.70;99.90;;;;;;5033054;28;20477;-70
2021/06/24 09:58:54;;;;;;;15.80;9.63;;;21.60;99.90;;;;;;5028216;28;20535;-73
2021/06/24 10:01:29;;;;;;;16.33;11.80;;;21.90;99.90;;;;;;5030083;28;20049;-72
2021/06/24 10:03:57;;;;;;;10.60;8.43;;;21.90;99.90;;;;;;5033442;28;20050;-73
2021/06/24 10:06:26;;;;;;;14.30;10.57;;;21.90;99.90;;;;;;5033079;28;20129;-73
2021/06/24 10:08:53;;;;;;;15.30;10.77;;;21.90;99.90;;;;;;5033171;28;20434;-74
2021/06/24 10:11:22;;;;;;;15.07;8.77;;;21.90;99.90;;;;;;5032096;28;20049;-71
2021/06/24 10:13:49;;;;;;;11.38;9.40;;;22.00;99.90;;;;;;5033952;28;20084;-71
2021/06/24 10:16:17;;;;;;;13.02;9.32;;;22.20;99.90;;;;;;5033741;28;20045;-71
2021/06/24 10:18:46;;;;;;;11.05;8.45;;;22.30;99.90;;;;;;5033537;28;20052;-72
2021/06/24 10:21:14;;;;;;;10.98;8.50;;;22.10;99.90;;;;;;5022941;28;20046;-71
2021/06/24 10:23:49;;;;;;;10.57;8.10;;;22.20;99.90;;;;;;5014108;28;20046;-71
2021/06/24 10:26:16;;;;;;;12.27;9.85;;;22.40;99.90;;;;;;5014517;28;20474;-71
2021/06/24 10:28:43;;;;;;;13.48;8.05;;;22.50;99.90;;;;;;5013731;28;20104;-71
2021/06/24 10:31:37;;;;;;;10.48;8.38;;;22.40;99.90;;;;;;5013753;28;20081;-70
2021/06/24 10:34:04;;;;;;;15.07;8.85;;;22.50;99.90;;;;;;5013761;28;20109;-71
2021/06/24 10:36:31;;;;;;;11.48;9.23;;;22.50;99.90;;;;;;5013433;28;20064;-71
2021/06/24 10:39:00;;;;;;;10.38;7.55;;;22.60;99.90;;;;;;5013728;28;20042;-71
2021/06/24 10:41:26;;;;;;;12.05;7.50;;;22.90;99.90;;;;;;5013362;28;20501;-71
2021/06/24 10:43:53;;;;;;;11.98;6.93;;;22.80;99.90;;;;;;5013958;28;20057;-71
2021/06/24 10:46:25;;;;;;;10.13;6.10;;;22.70;99.90;;;;;;5029203;28;20049;-71
2021/06/24 10:48:51;;;;;;;10.20;6.78;;;22.90;99.90;;;;;;5033815;28;20045;-71
2021/06/24 10:51:19;;;;;;;8.93;7.15;;;23.20;99.90;;;;;;5028351;28;20049;-71
2021/06/24 10:53:52;;;;;;;8.90;7.47;;;23.60;99.90;;;;;;5013360;28;20113;-71
2021/06/24 10:56:48;;;;;;;7.28;6.53;;;23.70;99.90;;;;;;5013037;28;20050;-71
2021/06/24 10:59:32;;;;;;;7.82;6.43;;;24.20;99.90;;;;;;5014053;28;20049;-71
2021/06/24 11:02:11;;;;;;;9.40;6.90;;;24.10;99.90;;;;;;5013340;28;20046;-71
2021/06/24 11:04:40;;;;;;;7.03;4.50;;;24.20;99.90;;;;;;5013513;28;20474;-71
2021/06/24 11:07:25;;;;;;;11.43;7.10;;;24.40;99.90;;;;;;5012881;28;20529;-71
2021/06/24 11:10:18;;;;;;;8.90;5.30;;;24.80;99.90;;;;;;5012395;28;20061;-71
2021/06/24 11:12:55;;;;;;;7.85;5.78;;;25.50;99.90;;;;;;4986309;28;20076;-73
2021/06/24 11:15:48;;;;;;;5.88;4.78;;;26.10;99.90;;;;;;5042670;28;20042;-70
2021/06/24 11:18:51;;;;;;;5.55;5.03;;;26.60;98.00;;;;;;5032494;28;20088;-70
2021/06/24 11:21:41;;;;;;;10.65;4.82;;;27.50;97.30;;;;;;5031053;28;20501;-70
2021/06/24 11:24:34;;;;;;;6.57;4.50;;;28.40;90.70;;;;;;5034348;28;20068;-74
2021/06/24 11:27:02;;;;;;;4.28;3.70;;;27.90;90.40;;;;;;5034567;28;20076;-74
2021/06/24 11:29:46;;;;;;;7.10;3.88;;;27.20;90.40;;;;;;5033204;28;20127;-71
2021/06/24 11:32:16;;;;;;;6.53;4.13;;;27.00;91.00;;;;;;5021711;28;20125;-73
2021/06/24 11:34:56;;;;;;;5.53;3.90;;;27.60;88.20;;;;;;5013018;28;20100;-75
2021/06/24 11:37:28;;;;;;;3.92;3.58;;;27.50;87.00;;;;;;5012099;28;20129;-72
2021/06/24 11:39:57;;;;;;;4.03;3.50;;;28.00;90.00;;;;;;5030697;28;20076;-71
2021/06/24 11:42:29;;;;;;;5.35;4.35;;;28.60;85.50;;;;;;5032264;28;20050;-73
2021/06/24 11:44:57;;;;;;;5.18;4.53;;;29.00;80.20;;;;;;5032172;28;20401;-73
2021/06/24 11:47:26;;;;;;;4.45;4.05;;;28.50;81.90;;;;;;5031271;28;20045;-73
2021/06/24 12:04:25;;;;;;;3.90;3.60;;;27.80;80.10;;;;;;5031917;28;20126;-70
2021/06/24 12:06:54;;;;;;;7.82;3.80;;;27.70;75.00;;;;;;5023210;28;20053;-70
2021/06/24 12:09:23;;;;;;;7.45;4.18;;;27.30;75.50;;;;;;5014198;28;20038;-71
2021/06/24 12:11:52;;;;;;;5.30;4.40;;;27.10;78.30;;;;;;5014837;28;20037;-72
2021/06/24 12:14:22;;;;;;;6.63;5.05;;;26.30;80.90;;;;;;5023340;28;20462;-72
2021/06/24 12:17:08;;;;;;;4.25;3.80;;;25.90;81.00;;;;;;5031281;28;20041;-73
2021/06/24 12:19:51;;;;;;;4.95;4.43;;;25.90;84.30;;;;;;5031890;28;20050;-71
2021/06/24 12:22:20;;;;;;;6.45;4.13;;;25.80;84.30;;;;;;5031796;28;20050;-71
2021/06/24 12:24:47;;;;;;;5.28;4.38;;;25.40;83.00;;;;;;5031711;28;20084;-70
2021/06/24 12:27:19;;;;;;;4.20;3.80;;;25.40;86.20;;;;;;5031716;28;20091;-69
2021/06/24 12:29:46;;;;;;;6.72;4.82;;;25.90;84.50;;;;;;5032314;28;20137;-72
2021/06/24 12:32:17;;;;;;;4.93;4.38;;;26.00;84.30;;;;;;5020588;28;20046;-71
2021/06/24 12:34:43;;;;;;;4.07;3.40;;;26.30;83.10;;;;;;5012780;28;20409;-71
2021/06/24 12:37:10;;;;;;;4.47;3.30;;;26.20;81.80;;;;;;5013169;28;20081;-71
2021/06/24 12:39:37;;;;;;;5.35;2.97;;;26.30;80.50;;;;;;5013827;28;20050;-72
2021/06/24 12:42:05;;;;;;;3.97;3.65;;;26.30;79.70;;;;;;5031363;28;20050;-73
2021/06/24 12:44:37;;;;;;;3.55;3.00;;;26.30;80.40;;;;;;5033633;28;20057;-71
2021/06/24 12:47:04;;;;;;;4.28;3.45;;;26.30;82.50;;;;;;5024364;28;20077;-71
2021/06/24 12:49:34;;;;;;;4.93;3.22;;;26.20;83.80;;;;;;5035477;28;20050;-70
2021/06/24 12:52:00;;;;;;;6.97;5.03;;;26.20;81.90;;;;;;5035154;28;20172;-71
2021/06/24 12:54:27;;;;;;;5.50;4.65;;;26.10;82.80;;;;;;5034935;28;20092;-71
2021/06/24 12:56:54;;;;;;;5.13;4.63;;;26.10;82.70;;;;;;5034499;28;20052;-71
2021/06/24 12:59:22;;;;;;;5.93;5.05;;;25.50;85.20;;;;;;5035206;28;20049;-71
2021/06/24 13:01:52;;;;;;;7.90;4.55;;;25.50;86.70;;;;;;5027180;28;20042;-71
2021/06/24 13:04:22;;;;;;;11.25;7.82;;;25.60;88.50;;;;;;5015439;28;20049;-71